sensor_id;sensor_type;location;lat;lon;timestamp;P1;durP1;ratioP1;P2;durP2;ratioP2
65156;SDS011;52745;49.794;18.258;2023-02-07T00:01:17;102.53;;;37.30;;
65156;SDS011;52745;49.794;18.258;2023-02-07T00:03:45;105.50;;;36.90;;
65156;SDS011;52745;49.794;18.258;2023-02-07T00:06:13;104.25;;;36.72;;
65156;SDS011;52745;49.794;18.258;2023-02-07T00:08:42;98.85;;;34.53;;
65156;SDS011;52745;49.794;18.258;2023-02-07T00:11:11;107.13;;;36.55;;
65156;SDS011;52745;49.794;18.258;2023-02-07T00:13:42;106.55;;;35.00;;
65156;SDS011;52745;49.794;18.258;2023-02-07T00:16:10;95.22;;;34.58;;
65156;SDS011;52745;49.794;18.258;2023-02-07T00:18:39;99.43;;;34.88;;
65156;SDS011;52745;49.794;18.258;2023-02-07T00:21:07;101.63;;;34.30;;
65156;SDS011;52745;49.794;18.258;2023-02-07T00:23:36;86.25;;;32.35;;
65156;SDS011;52745;49.794;18.258;2023-02-07T00:26:04;91.80;;;32.53;;
65156;SDS011;52745;49.794;18.258;2023-02-07T00:28:32;88.95;;;33.83;;
65156;SDS011;52745;49.794;18.258;2023-02-07T00:36:03;82.15;;;29.00;;
65156;SDS011;52745;49.794;18.258;2023-02-07T00:38:31;86.22;;;31.52;;
65156;SDS011;52745;49.794;18.258;2023-02-07T00:40:59;101.60;;;35.72;;
65156;SDS011;52745;49.794;18.258;2023-02-07T00:43:29;101.53;;;35.97;;
65156;SDS011;52745;49.794;18.258;2023-02-07T00:45:57;99.38;;;35.00;;
65156;SDS011;52745;49.794;18.258;2023-02-07T00:48:27;98.53;;;36.35;;
65156;SDS011;52745;49.794;18.258;2023-02-07T00:50:55;94.57;;;35.00;;
65156;SDS011;52745;49.794;18.258;2023-02-07T00:53:23;104.15;;;35.70;;
65156;SDS011;52745;49.794;18.258;2023-02-07T00:55:50;98.82;;;35.08;;
65156;SDS011;52745;49.794;18.258;2023-02-07T00:58:17;104.53;;;35.35;;
65156;SDS011;52745;49.794;18.258;2023-02-07T01:00:45;100.40;;;35.25;;
65156;SDS011;52745;49.794;18.258;2023-02-07T01:03:12;106.50;;;36.63;;
65156;SDS011;52745;49.794;18.258;2023-02-07T01:05:39;99.97;;;35.45;;
65156;SDS011;52745;49.794;18.258;2023-02-07T01:08:06;104.43;;;37.92;;
65156;SDS011;52745;49.794;18.258;2023-02-07T01:10:35;102.95;;;37.60;;
65156;SDS011;52745;49.794;18.258;2023-02-07T01:13:05;104.78;;;37.88;;
65156;SDS011;52745;49.794;18.258;2023-02-07T01:15:35;108.15;;;39.15;;
65156;SDS011;52745;49.794;18.258;2023-02-07T01:18:04;103.57;;;37.10;;
65156;SDS011;52745;49.794;18.258;2023-02-07T01:20:31;106.82;;;39.75;;
65156;SDS011;52745;49.794;18.258;2023-02-07T01:22:58;111.53;;;41.47;;
65156;SDS011;52745;49.794;18.258;2023-02-07T01:25:25;107.25;;;38.33;;
65156;SDS011;52745;49.794;18.258;2023-02-07T01:27:52;107.57;;;39.08;;
65156;SDS011;52745;49.794;18.258;2023-02-07T01:30:19;118.60;;;41.03;;
65156;SDS011;52745;49.794;18.258;2023-02-07T01:32:46;103.45;;;38.85;;
65156;SDS011;52745;49.794;18.258;2023-02-07T01:35:14;115.75;;;39.15;;
65156;SDS011;52745;49.794;18.258;2023-02-07T01:37:41;102.72;;;37.50;;
65156;SDS011;52745;49.794;18.258;2023-02-07T01:40:09;111.10;;;38.38;;
65156;SDS011;52745;49.794;18.258;2023-02-07T01:42:37;109.57;;;40.97;;
65156;SDS011;52745;49.794;18.258;2023-02-07T01:45:15;111.22;;;37.92;;
65156;SDS011;52745;49.794;18.258;2023-02-07T01:47:49;116.47;;;39.30;;
65156;SDS011;52745;49.794;18.258;2023-02-07T01:50:18;102.03;;;37.13;;
65156;SDS011;52745;49.794;18.258;2023-02-07T01:52:45;102.07;;;36.65;;
65156;SDS011;52745;49.794;18.258;2023-02-07T01:55:17;112.45;;;38.78;;
65156;SDS011;52745;49.794;18.258;2023-02-07T01:57:50;99.85;;;35.40;;
65156;SDS011;52745;49.794;18.258;2023-02-07T02:00:17;99.38;;;36.85;;
65156;SDS011;52745;49.794;18.258;2023-02-07T02:02:44;99.88;;;36.10;;
65156;SDS011;52745;49.794;18.258;2023-02-07T02:05:13;93.72;;;34.58;;
65156;SDS011;52745;49.794;18.258;2023-02-07T02:07:41;103.18;;;35.50;;
65156;SDS011;52745;49.794;18.258;2023-02-07T02:10:15;106.75;;;36.15;;
65156;SDS011;52745;49.794;18.258;2023-02-07T02:15:29;106.30;;;34.72;;
65156;SDS011;52745;49.794;18.258;2023-02-07T02:29:47;96.63;;;34.88;;
65156;SDS011;52745;49.794;18.258;2023-02-07T02:45:38;97.85;;;34.42;;
65156;SDS011;52745;49.794;18.258;2023-02-07T02:48:10;89.90;;;33.10;;
65156;SDS011;52745;49.794;18.258;2023-02-07T02:50:37;87.07;;;31.80;;
65156;SDS011;52745;49.794;18.258;2023-02-07T02:53:05;89.20;;;31.52;;
65156;SDS011;52745;49.794;18.258;2023-02-07T03:12:33;69.97;;;27.80;;
65156;SDS011;52745;49.794;18.258;2023-02-07T03:20:27;71.53;;;27.55;;
65156;SDS011;52745;49.794;18.258;2023-02-07T03:22:58;73.85;;;27.38;;
65156;SDS011;52745;49.794;18.258;2023-02-07T03:25:29;73.30;;;24.10;;
65156;SDS011;52745;49.794;18.258;2023-02-07T03:27:57;78.55;;;27.13;;
65156;SDS011;52745;49.794;18.258;2023-02-07T03:30:27;81.57;;;29.73;;
65156;SDS011;52745;49.794;18.258;2023-02-07T03:32:58;72.75;;;28.15;;
65156;SDS011;52745;49.794;18.258;2023-02-07T03:35:33;76.75;;;29.33;;
65156;SDS011;52745;49.794;18.258;2023-02-07T03:38:04;71.43;;;27.85;;
65156;SDS011;52745;49.794;18.258;2023-02-07T03:40:37;85.20;;;31.02;;
65156;SDS011;52745;49.794;18.258;2023-02-07T03:43:10;78.28;;;27.80;;
65156;SDS011;52745;49.794;18.258;2023-02-07T03:45:41;84.65;;;30.35;;
65156;SDS011;52745;49.794;18.258;2023-02-07T03:48:08;80.18;;;28.77;;
65156;SDS011;52745;49.794;18.258;2023-02-07T03:50:35;74.93;;;29.42;;
65156;SDS011;52745;49.794;18.258;2023-02-07T03:53:02;81.35;;;30.40;;
65156;SDS011;52745;49.794;18.258;2023-02-07T03:55:30;69.97;;;28.20;;
65156;SDS011;52745;49.794;18.258;2023-02-07T03:57:57;77.68;;;28.80;;
65156;SDS011;52745;49.794;18.258;2023-02-07T04:00:25;77.85;;;27.63;;
65156;SDS011;52745;49.794;18.258;2023-02-07T04:02:51;80.45;;;29.92;;
65156;SDS011;52745;49.794;18.258;2023-02-07T04:05:19;91.20;;;30.73;;
65156;SDS011;52745;49.794;18.258;2023-02-07T04:07:45;83.47;;;29.85;;
65156;SDS011;52745;49.794;18.258;2023-02-07T04:10:12;84.68;;;30.02;;
65156;SDS011;52745;49.794;18.258;2023-02-07T04:12:39;69.85;;;26.77;;
65156;SDS011;52745;49.794;18.258;2023-02-07T04:15:06;64.50;;;25.75;;
65156;SDS011;52745;49.794;18.258;2023-02-07T04:17:33;68.60;;;25.20;;
65156;SDS011;52745;49.794;18.258;2023-02-07T04:20:01;62.75;;;24.40;;
65156;SDS011;52745;49.794;18.258;2023-02-07T04:22:28;68.90;;;24.13;;
65156;SDS011;52745;49.794;18.258;2023-02-07T04:24:55;69.90;;;23.52;;
65156;SDS011;52745;49.794;18.258;2023-02-07T04:27:22;63.38;;;23.60;;
65156;SDS011;52745;49.794;18.258;2023-02-07T04:29:49;63.25;;;23.67;;
65156;SDS011;52745;49.794;18.258;2023-02-07T04:32:16;58.50;;;21.65;;
65156;SDS011;52745;49.794;18.258;2023-02-07T04:34:43;54.58;;;22.30;;
65156;SDS011;52745;49.794;18.258;2023-02-07T04:37:10;53.17;;;21.42;;
65156;SDS011;52745;49.794;18.258;2023-02-07T04:39:38;59.10;;;22.75;;
65156;SDS011;52745;49.794;18.258;2023-02-07T04:42:04;54.88;;;21.67;;
65156;SDS011;52745;49.794;18.258;2023-02-07T04:44:33;59.63;;;21.77;;
65156;SDS011;52745;49.794;18.258;2023-02-07T04:47:00;52.40;;;21.52;;
65156;SDS011;52745;49.794;18.258;2023-02-07T04:49:27;54.97;;;21.48;;
65156;SDS011;52745;49.794;18.258;2023-02-07T04:51:53;66.43;;;21.50;;
65156;SDS011;52745;49.794;18.258;2023-02-07T04:54:20;60.88;;;20.75;;
65156;SDS011;52745;49.794;18.258;2023-02-07T04:56:47;57.45;;;22.13;;
65156;SDS011;52745;49.794;18.258;2023-02-07T04:59:14;63.28;;;22.38;;
65156;SDS011;52745;49.794;18.258;2023-02-07T05:01:40;64.70;;;23.63;;
65156;SDS011;52745;49.794;18.258;2023-02-07T05:04:07;57.58;;;22.70;;
65156;SDS011;52745;49.794;18.258;2023-02-07T05:06:34;63.25;;;23.23;;
65156;SDS011;52745;49.794;18.258;2023-02-07T05:09:01;70.05;;;22.63;;
65156;SDS011;52745;49.794;18.258;2023-02-07T05:11:27;59.58;;;22.92;;
65156;SDS011;52745;49.794;18.258;2023-02-07T05:13:54;52.58;;;21.23;;
65156;SDS011;52745;49.794;18.258;2023-02-07T05:16:21;62.35;;;23.02;;
65156;SDS011;52745;49.794;18.258;2023-02-07T05:18:48;58.38;;;22.17;;
65156;SDS011;52745;49.794;18.258;2023-02-07T05:21:14;69.90;;;24.92;;
65156;SDS011;52745;49.794;18.258;2023-02-07T05:23:41;59.35;;;21.80;;
65156;SDS011;52745;49.794;18.258;2023-02-07T05:26:08;54.92;;;20.90;;
65156;SDS011;52745;49.794;18.258;2023-02-07T05:28:35;44.35;;;19.52;;
65156;SDS011;52745;49.794;18.258;2023-02-07T05:31:02;47.13;;;19.70;;
65156;SDS011;52745;49.794;18.258;2023-02-07T05:33:28;49.67;;;18.30;;
65156;SDS011;52745;49.794;18.258;2023-02-07T05:35:55;45.90;;;17.70;;
65156;SDS011;52745;49.794;18.258;2023-02-07T05:38:22;50.50;;;16.98;;
65156;SDS011;52745;49.794;18.258;2023-02-07T05:40:49;41.10;;;17.33;;
65156;SDS011;52745;49.794;18.258;2023-02-07T05:43:15;43.10;;;17.30;;
65156;SDS011;52745;49.794;18.258;2023-02-07T05:45:42;40.13;;;15.40;;
65156;SDS011;52745;49.794;18.258;2023-02-07T05:48:11;38.85;;;16.02;;
65156;SDS011;52745;49.794;18.258;2023-02-07T05:50:38;41.85;;;16.02;;
65156;SDS011;52745;49.794;18.258;2023-02-07T05:53:06;40.67;;;16.77;;
65156;SDS011;52745;49.794;18.258;2023-02-07T05:55:33;42.67;;;16.08;;
65156;SDS011;52745;49.794;18.258;2023-02-07T05:58:00;39.97;;;15.98;;
65156;SDS011;52745;49.794;18.258;2023-02-07T06:00:27;40.03;;;15.02;;
65156;SDS011;52745;49.794;18.258;2023-02-07T06:02:54;43.08;;;15.60;;
65156;SDS011;52745;49.794;18.258;2023-02-07T06:05:21;47.05;;;16.65;;
65156;SDS011;52745;49.794;18.258;2023-02-07T06:07:58;47.72;;;14.73;;
65156;SDS011;52745;49.794;18.258;2023-02-07T06:10:25;39.90;;;15.30;;
65156;SDS011;52745;49.794;18.258;2023-02-07T06:12:52;44.97;;;15.75;;
65156;SDS011;52745;49.794;18.258;2023-02-07T06:15:19;39.20;;;15.55;;
65156;SDS011;52745;49.794;18.258;2023-02-07T06:17:45;42.88;;;15.38;;
65156;SDS011;52745;49.794;18.258;2023-02-07T06:20:13;41.38;;;15.73;;
65156;SDS011;52745;49.794;18.258;2023-02-07T06:22:40;39.03;;;16.25;;
65156;SDS011;52745;49.794;18.258;2023-02-07T06:25:07;49.95;;;16.35;;
65156;SDS011;52745;49.794;18.258;2023-02-07T06:27:38;35.35;;;15.23;;
65156;SDS011;52745;49.794;18.258;2023-02-07T06:30:06;40.58;;;16.80;;
65156;SDS011;52745;49.794;18.258;2023-02-07T06:32:33;43.15;;;15.88;;
65156;SDS011;52745;49.794;18.258;2023-02-07T06:35:00;43.03;;;16.35;;
65156;SDS011;52745;49.794;18.258;2023-02-07T06:37:27;46.88;;;16.83;;
65156;SDS011;52745;49.794;18.258;2023-02-07T06:39:54;45.08;;;17.30;;
65156;SDS011;52745;49.794;18.258;2023-02-07T06:42:21;45.30;;;16.83;;
65156;SDS011;52745;49.794;18.258;2023-02-07T06:44:48;46.40;;;16.42;;
65156;SDS011;52745;49.794;18.258;2023-02-07T06:47:14;48.17;;;16.92;;
65156;SDS011;52745;49.794;18.258;2023-02-07T06:49:41;42.83;;;16.88;;
65156;SDS011;52745;49.794;18.258;2023-02-07T06:52:08;44.67;;;17.35;;
65156;SDS011;52745;49.794;18.258;2023-02-07T06:54:35;49.05;;;17.98;;
65156;SDS011;52745;49.794;18.258;2023-02-07T06:57:02;45.35;;;16.40;;
65156;SDS011;52745;49.794;18.258;2023-02-07T06:59:28;42.10;;;16.67;;
65156;SDS011;52745;49.794;18.258;2023-02-07T07:01:56;45.65;;;17.10;;
65156;SDS011;52745;49.794;18.258;2023-02-07T07:04:22;48.90;;;17.23;;
65156;SDS011;52745;49.794;18.258;2023-02-07T07:06:49;53.03;;;18.48;;
65156;SDS011;52745;49.794;18.258;2023-02-07T07:09:16;44.38;;;18.10;;
65156;SDS011;52745;49.794;18.258;2023-02-07T07:11:43;48.60;;;18.20;;
65156;SDS011;52745;49.794;18.258;2023-02-07T07:14:10;44.90;;;17.92;;
65156;SDS011;52745;49.794;18.258;2023-02-07T07:16:38;50.58;;;20.42;;
65156;SDS011;52745;49.794;18.258;2023-02-07T07:19:06;54.92;;;21.10;;
65156;SDS011;52745;49.794;18.258;2023-02-07T07:21:32;55.72;;;21.40;;
65156;SDS011;52745;49.794;18.258;2023-02-07T07:24:00;50.13;;;20.30;;
65156;SDS011;52745;49.794;18.258;2023-02-07T07:26:27;63.72;;;22.88;;
65156;SDS011;52745;49.794;18.258;2023-02-07T07:28:54;65.30;;;24.02;;
65156;SDS011;52745;49.794;18.258;2023-02-07T07:31:25;64.25;;;23.98;;
65156;SDS011;52745;49.794;18.258;2023-02-07T07:33:53;64.80;;;25.42;;
65156;SDS011;52745;49.794;18.258;2023-02-07T07:36:20;73.35;;;27.88;;
65156;SDS011;52745;49.794;18.258;2023-02-07T07:38:47;77.68;;;28.00;;
65156;SDS011;52745;49.794;18.258;2023-02-07T07:41:14;71.20;;;26.08;;
65156;SDS011;52745;49.794;18.258;2023-02-07T07:43:40;77.72;;;26.88;;
65156;SDS011;52745;49.794;18.258;2023-02-07T07:46:07;75.35;;;26.73;;
65156;SDS011;52745;49.794;18.258;2023-02-07T07:48:34;82.50;;;29.15;;
65156;SDS011;52745;49.794;18.258;2023-02-07T07:51:01;75.80;;;27.27;;
65156;SDS011;52745;49.794;18.258;2023-02-07T07:53:27;74.97;;;26.67;;
65156;SDS011;52745;49.794;18.258;2023-02-07T07:55:55;72.38;;;25.45;;
65156;SDS011;52745;49.794;18.258;2023-02-07T07:58:23;77.43;;;26.73;;
65156;SDS011;52745;49.794;18.258;2023-02-07T08:00:50;74.35;;;26.65;;
65156;SDS011;52745;49.794;18.258;2023-02-07T08:03:18;76.28;;;28.67;;
65156;SDS011;52745;49.794;18.258;2023-02-07T08:05:46;81.50;;;28.80;;
65156;SDS011;52745;49.794;18.258;2023-02-07T08:08:13;82.60;;;29.67;;
65156;SDS011;52745;49.794;18.258;2023-02-07T08:10:40;87.18;;;31.95;;
65156;SDS011;52745;49.794;18.258;2023-02-07T08:13:07;86.35;;;32.83;;
65156;SDS011;52745;49.794;18.258;2023-02-07T08:15:35;92.53;;;34.35;;
65156;SDS011;52745;49.794;18.258;2023-02-07T08:18:02;83.90;;;33.20;;
65156;SDS011;52745;49.794;18.258;2023-02-07T08:20:29;93.72;;;34.05;;
65156;SDS011;52745;49.794;18.258;2023-02-07T08:22:56;88.28;;;33.08;;
65156;SDS011;52745;49.794;18.258;2023-02-07T08:25:24;96.32;;;35.17;;
65156;SDS011;52745;49.794;18.258;2023-02-07T08:27:51;89.55;;;34.38;;
65156;SDS011;52745;49.794;18.258;2023-02-07T08:30:18;94.70;;;35.85;;
65156;SDS011;52745;49.794;18.258;2023-02-07T08:32:45;101.55;;;35.33;;
65156;SDS011;52745;49.794;18.258;2023-02-07T08:35:13;110.78;;;38.42;;
65156;SDS011;52745;49.794;18.258;2023-02-07T08:37:39;117.90;;;37.58;;
65156;SDS011;52745;49.794;18.258;2023-02-07T08:40:06;121.28;;;40.15;;
65156;SDS011;52745;49.794;18.258;2023-02-07T08:42:33;113.95;;;40.38;;
65156;SDS011;52745;49.794;18.258;2023-02-07T08:45:00;126.82;;;43.00;;
65156;SDS011;52745;49.794;18.258;2023-02-07T08:47:27;134.15;;;44.95;;
65156;SDS011;52745;49.794;18.258;2023-02-07T08:49:54;135.45;;;44.80;;
65156;SDS011;52745;49.794;18.258;2023-02-07T08:52:20;128.07;;;44.40;;
65156;SDS011;52745;49.794;18.258;2023-02-07T08:54:48;135.00;;;45.20;;
65156;SDS011;52745;49.794;18.258;2023-02-07T08:57:15;125.70;;;44.47;;
65156;SDS011;52745;49.794;18.258;2023-02-07T08:59:42;132.93;;;45.55;;
65156;SDS011;52745;49.794;18.258;2023-02-07T09:02:09;133.02;;;45.33;;
65156;SDS011;52745;49.794;18.258;2023-02-07T09:04:37;114.63;;;44.63;;
65156;SDS011;52745;49.794;18.258;2023-02-07T09:07:06;110.03;;;40.97;;
65156;SDS011;52745;49.794;18.258;2023-02-07T09:09:34;118.57;;;42.60;;
65156;SDS011;52745;49.794;18.258;2023-02-07T09:12:00;110.88;;;42.58;;
65156;SDS011;52745;49.794;18.258;2023-02-07T09:14:27;112.93;;;41.55;;
65156;SDS011;52745;49.794;18.258;2023-02-07T09:16:54;104.47;;;40.20;;
65156;SDS011;52745;49.794;18.258;2023-02-07T09:19:21;108.03;;;42.65;;
65156;SDS011;52745;49.794;18.258;2023-02-07T09:21:47;101.43;;;37.83;;
65156;SDS011;52745;49.794;18.258;2023-02-07T09:24:14;102.13;;;38.30;;
65156;SDS011;52745;49.794;18.258;2023-02-07T09:26:42;96.43;;;36.10;;
65156;SDS011;52745;49.794;18.258;2023-02-07T09:29:12;99.65;;;37.40;;
65156;SDS011;52745;49.794;18.258;2023-02-07T09:31:39;102.95;;;39.75;;
65156;SDS011;52745;49.794;18.258;2023-02-07T09:34:07;89.45;;;35.10;;
65156;SDS011;52745;49.794;18.258;2023-02-07T09:36:34;97.82;;;37.92;;
65156;SDS011;52745;49.794;18.258;2023-02-07T09:39:02;97.88;;;34.72;;
65156;SDS011;52745;49.794;18.258;2023-02-07T09:47:22;90.00;;;34.45;;
65156;SDS011;52745;49.794;18.258;2023-02-07T09:49:54;95.60;;;35.63;;
65156;SDS011;52745;49.794;18.258;2023-02-07T09:52:30;96.40;;;35.72;;
65156;SDS011;52745;49.794;18.258;2023-02-07T09:55:01;97.88;;;35.42;;
65156;SDS011;52745;49.794;18.258;2023-02-07T09:57:50;89.07;;;35.40;;
65156;SDS011;52745;49.794;18.258;2023-02-07T10:00:31;96.70;;;36.30;;
65156;SDS011;52745;49.794;18.258;2023-02-07T10:05:44;89.63;;;36.67;;
65156;SDS011;52745;49.794;18.258;2023-02-07T10:08:15;90.95;;;33.97;;
65156;SDS011;52745;49.794;18.258;2023-02-07T10:21:29;99.53;;;34.90;;
65156;SDS011;52745;49.794;18.258;2023-02-07T10:29:31;97.85;;;39.45;;
65156;SDS011;52745;49.794;18.258;2023-02-07T10:32:28;93.82;;;36.83;;
65156;SDS011;52745;49.794;18.258;2023-02-07T10:34:58;100.50;;;37.83;;
65156;SDS011;52745;49.794;18.258;2023-02-07T10:37:29;100.10;;;38.67;;
65156;SDS011;52745;49.794;18.258;2023-02-07T10:40:02;100.80;;;39.35;;
65156;SDS011;52745;49.794;18.258;2023-02-07T10:42:52;115.78;;;44.67;;
65156;SDS011;52745;49.794;18.258;2023-02-07T10:45:25;106.85;;;40.85;;
65156;SDS011;52745;49.794;18.258;2023-02-07T10:47:52;102.72;;;38.25;;
65156;SDS011;52745;49.794;18.258;2023-02-07T10:50:21;99.50;;;39.20;;
65156;SDS011;52745;49.794;18.258;2023-02-07T10:52:50;98.60;;;41.75;;
65156;SDS011;52745;49.794;18.258;2023-02-07T10:55:19;97.70;;;39.03;;
65156;SDS011;52745;49.794;18.258;2023-02-07T10:58:04;105.20;;;38.58;;
65156;SDS011;52745;49.794;18.258;2023-02-07T11:00:31;98.63;;;40.10;;
65156;SDS011;52745;49.794;18.258;2023-02-07T11:03:03;102.93;;;39.83;;
65156;SDS011;52745;49.794;18.258;2023-02-07T11:05:33;102.40;;;38.53;;
65156;SDS011;52745;49.794;18.258;2023-02-07T11:08:22;117.07;;;44.72;;
65156;SDS011;52745;49.794;18.258;2023-02-07T11:10:54;97.95;;;37.38;;
65156;SDS011;52745;49.794;18.258;2023-02-07T11:13:27;87.57;;;37.63;;
65156;SDS011;52745;49.794;18.258;2023-02-07T11:20:58;87.47;;;35.22;;
65156;SDS011;52745;49.794;18.258;2023-02-07T11:23:25;101.18;;;38.30;;
65156;SDS011;52745;49.794;18.258;2023-02-07T11:25:53;90.18;;;36.60;;
65156;SDS011;52745;49.794;18.258;2023-02-07T11:28:28;89.53;;;34.15;;
65156;SDS011;52745;49.794;18.258;2023-02-07T11:30:57;82.95;;;32.53;;
65156;SDS011;52745;49.794;18.258;2023-02-07T11:33:29;79.05;;;33.08;;
65156;SDS011;52745;49.794;18.258;2023-02-07T11:38:28;94.22;;;35.50;;
65156;SDS011;52745;49.794;18.258;2023-02-07T11:40:59;83.72;;;35.40;;
65156;SDS011;52745;49.794;18.258;2023-02-07T11:43:33;88.32;;;34.22;;
65156;SDS011;52745;49.794;18.258;2023-02-07T11:46:02;80.43;;;33.25;;
65156;SDS011;52745;49.794;18.258;2023-02-07T11:48:35;77.63;;;32.42;;
65156;SDS011;52745;49.794;18.258;2023-02-07T11:51:05;81.10;;;34.55;;
65156;SDS011;52745;49.794;18.258;2023-02-07T11:56:24;78.97;;;33.58;;
65156;SDS011;52745;49.794;18.258;2023-02-07T11:58:51;108.40;;;46.58;;
65156;SDS011;52745;49.794;18.258;2023-02-07T12:01:29;84.35;;;33.72;;
65156;SDS011;52745;49.794;18.258;2023-02-07T12:03:59;84.43;;;33.33;;
65156;SDS011;52745;49.794;18.258;2023-02-07T12:11:54;81.38;;;31.80;;
65156;SDS011;52745;49.794;18.258;2023-02-07T12:14:40;83.28;;;33.75;;
65156;SDS011;52745;49.794;18.258;2023-02-07T12:17:15;86.07;;;32.88;;
65156;SDS011;52745;49.794;18.258;2023-02-07T12:19:53;83.20;;;33.00;;
65156;SDS011;52745;49.794;18.258;2023-02-07T12:22:30;74.85;;;30.02;;
65156;SDS011;52745;49.794;18.258;2023-02-07T12:25:08;83.13;;;31.20;;
65156;SDS011;52745;49.794;18.258;2023-02-07T12:27:44;85.85;;;32.47;;
65156;SDS011;52745;49.794;18.258;2023-02-07T12:33:16;66.13;;;28.88;;
65156;SDS011;52745;49.794;18.258;2023-02-07T12:38:47;59.83;;;24.88;;
65156;SDS011;52745;49.794;18.258;2023-02-07T12:41:31;56.40;;;23.67;;
65156;SDS011;52745;49.794;18.258;2023-02-07T12:46:34;56.15;;;22.58;;
65156;SDS011;52745;49.794;18.258;2023-02-07T12:54:31;68.50;;;25.48;;
65156;SDS011;52745;49.794;18.258;2023-02-07T12:59:54;57.10;;;23.42;;
65156;SDS011;52745;49.794;18.258;2023-02-07T13:18:28;54.78;;;24.05;;
65156;SDS011;52745;49.794;18.258;2023-02-07T13:23:49;58.72;;;25.13;;
65156;SDS011;52745;49.794;18.258;2023-02-07T13:26:17;68.75;;;25.83;;
65156;SDS011;52745;49.794;18.258;2023-02-07T13:29:00;67.00;;;26.70;;
65156;SDS011;52745;49.794;18.258;2023-02-07T13:34:15;62.25;;;25.45;;
65156;SDS011;52745;49.794;18.258;2023-02-07T13:36:45;84.28;;;36.90;;
65156;SDS011;52745;49.794;18.258;2023-02-07T13:39:19;64.05;;;26.75;;
65156;SDS011;52745;49.794;18.258;2023-02-07T13:44:36;63.67;;;27.00;;
65156;SDS011;52745;49.794;18.258;2023-02-07T13:53:15;59.08;;;24.50;;
65156;SDS011;52745;49.794;18.258;2023-02-07T13:55:50;70.90;;;28.50;;
65156;SDS011;52745;49.794;18.258;2023-02-07T14:01:28;65.93;;;26.63;;
65156;SDS011;52745;49.794;18.258;2023-02-07T14:04:01;66.75;;;27.45;;
65156;SDS011;52745;49.794;18.258;2023-02-07T14:06:30;67.72;;;27.00;;
65156;SDS011;52745;49.794;18.258;2023-02-07T14:12:18;66.05;;;26.73;;
65156;SDS011;52745;49.794;18.258;2023-02-07T14:14:48;63.95;;;25.85;;
65156;SDS011;52745;49.794;18.258;2023-02-07T14:19:52;62.15;;;26.02;;
65156;SDS011;52745;49.794;18.258;2023-02-07T14:32:30;46.83;;;20.02;;
65156;SDS011;52745;49.794;18.258;2023-02-07T14:41:08;48.30;;;20.88;;
65156;SDS011;52745;49.794;18.258;2023-02-07T14:43:23;46.20;;;19.70;;
65156;SDS011;52745;49.794;18.258;2023-02-07T14:48:31;42.85;;;17.25;;
65156;SDS011;52745;49.794;18.258;2023-02-07T14:51:10;49.40;;;20.73;;
65156;SDS011;52745;49.794;18.258;2023-02-07T14:53:40;41.40;;;18.05;;
65156;SDS011;52745;49.794;18.258;2023-02-07T14:56:24;40.42;;;17.88;;
65156;SDS011;52745;49.794;18.258;2023-02-07T14:58:57;35.53;;;15.75;;
65156;SDS011;52745;49.794;18.258;2023-02-07T15:01:24;39.20;;;16.83;;
65156;SDS011;52745;49.794;18.258;2023-02-07T15:04:01;34.03;;;14.98;;
65156;SDS011;52745;49.794;18.258;2023-02-07T15:06:38;40.15;;;15.40;;
65156;SDS011;52745;49.794;18.258;2023-02-07T15:09:26;33.78;;;14.75;;
65156;SDS011;52745;49.794;18.258;2023-02-07T15:11:53;33.55;;;13.88;;
65156;SDS011;52745;49.794;18.258;2023-02-07T15:14:31;40.70;;;14.85;;
65156;SDS011;52745;49.794;18.258;2023-02-07T15:16:59;34.75;;;15.73;;
65156;SDS011;52745;49.794;18.258;2023-02-07T15:19:31;36.08;;;14.85;;
65156;SDS011;52745;49.794;18.258;2023-02-07T15:22:01;31.73;;;12.93;;
65156;SDS011;52745;49.794;18.258;2023-02-07T15:24:30;36.95;;;14.10;;
65156;SDS011;52745;49.794;18.258;2023-02-07T15:27:04;34.90;;;13.90;;
65156;SDS011;52745;49.794;18.258;2023-02-07T15:29:33;34.58;;;13.60;;
65156;SDS011;52745;49.794;18.258;2023-02-07T15:32:22;34.22;;;15.35;;
65156;SDS011;52745;49.794;18.258;2023-02-07T15:35:10;37.95;;;13.77;;
65156;SDS011;52745;49.794;18.258;2023-02-07T15:37:41;32.33;;;14.02;;
65156;SDS011;52745;49.794;18.258;2023-02-07T15:40:09;37.72;;;13.82;;
65156;SDS011;52745;49.794;18.258;2023-02-07T15:42:50;29.23;;;13.70;;
65156;SDS011;52745;49.794;18.258;2023-02-07T15:45:26;33.63;;;13.68;;
65156;SDS011;52745;49.794;18.258;2023-02-07T15:47:58;27.83;;;12.80;;
65156;SDS011;52745;49.794;18.258;2023-02-07T15:50:28;32.22;;;13.10;;
65156;SDS011;52745;49.794;18.258;2023-02-07T15:52:56;32.95;;;14.10;;
65156;SDS011;52745;49.794;18.258;2023-02-07T15:55:31;38.95;;;15.93;;
65156;SDS011;52745;49.794;18.258;2023-02-07T16:00:28;31.85;;;14.35;;
65156;SDS011;52745;49.794;18.258;2023-02-07T16:03:06;38.85;;;15.75;;
65156;SDS011;52745;49.794;18.258;2023-02-07T16:05:39;38.65;;;17.45;;
65156;SDS011;52745;49.794;18.258;2023-02-07T16:08:27;42.90;;;17.65;;
65156;SDS011;52745;49.794;18.258;2023-02-07T16:11:10;39.38;;;15.88;;
65156;SDS011;52745;49.794;18.258;2023-02-07T16:13:46;33.55;;;14.60;;
65156;SDS011;52745;49.794;18.258;2023-02-07T16:16:18;38.15;;;14.93;;
65156;SDS011;52745;49.794;18.258;2023-02-07T16:18:46;33.63;;;15.77;;
65156;SDS011;52745;49.794;18.258;2023-02-07T16:23:46;35.17;;;15.25;;
65156;SDS011;52745;49.794;18.258;2023-02-07T16:26:15;36.03;;;15.45;;
65156;SDS011;52745;49.794;18.258;2023-02-07T16:28:50;41.53;;;17.13;;
65156;SDS011;52745;49.794;18.258;2023-02-07T16:31:17;37.45;;;16.42;;
65156;SDS011;52745;49.794;18.258;2023-02-07T16:33:44;42.83;;;16.10;;
65156;SDS011;52745;49.794;18.258;2023-02-07T16:36:13;42.90;;;17.60;;
65156;SDS011;52745;49.794;18.258;2023-02-07T16:38:41;42.67;;;16.27;;
65156;SDS011;52745;49.794;18.258;2023-02-07T16:41:18;48.15;;;17.80;;
65156;SDS011;52745;49.794;18.258;2023-02-07T16:43:46;39.20;;;17.17;;
65156;SDS011;52745;49.794;18.258;2023-02-07T16:46:13;46.38;;;17.45;;
65156;SDS011;52745;49.794;18.258;2023-02-07T16:48:40;40.28;;;17.42;;
65156;SDS011;52745;49.794;18.258;2023-02-07T16:51:07;39.38;;;16.35;;
65156;SDS011;52745;49.794;18.258;2023-02-07T16:53:33;44.35;;;18.75;;
65156;SDS011;52745;49.794;18.258;2023-02-07T16:56:00;46.10;;;17.88;;
65156;SDS011;52745;49.794;18.258;2023-02-07T16:58:29;43.38;;;17.92;;
65156;SDS011;52745;49.794;18.258;2023-02-07T17:00:57;46.95;;;19.08;;
65156;SDS011;52745;49.794;18.258;2023-02-07T17:03:24;43.78;;;18.90;;
65156;SDS011;52745;49.794;18.258;2023-02-07T17:05:51;41.80;;;17.77;;
65156;SDS011;52745;49.794;18.258;2023-02-07T17:08:19;44.05;;;18.63;;
65156;SDS011;52745;49.794;18.258;2023-02-07T17:10:54;48.88;;;18.98;;
65156;SDS011;52745;49.794;18.258;2023-02-07T17:13:24;49.17;;;19.15;;
65156;SDS011;52745;49.794;18.258;2023-02-07T17:15:52;51.90;;;19.55;;